DAL7609 KSJC-KSUN
Flight info
| Callsign | DAL7609 |
|---|---|
| Flight time | 1h 32m |
| Altitude | 37000 |
| Route | LOUPE1 ORRCA FMG JAJAY PARZZ YAWNY1 |
| Aircraft | B738/M-SDE2E3FGHIRWXY/LB1 |
Departure
| Time | 2026-05-04 03:23 |
|---|---|
| Airport | Norman Y. Mineta San Jose International Airport (KSJC) |
Arrival
| Time | 2026-05-04 04:56 |
|---|---|
| Airport | Friedman Memorial Airport (KSUN) |
| Time | Latitude | Longitude | Altitude | Speed | Heading |
|---|---|---|---|---|---|
| 2026-05-04 02:49 | 37.37031 | -121.93150 | 41 ft | 0 kts | 59° |
| 2026-05-04 03:12 | 37.37031 | -121.93151 | 41 ft | 1 kts | 59° |
| 2026-05-04 03:13 | 37.37024 | -121.93166 | 41 ft | 3 kts | 67° |
| 2026-05-04 03:13 | 37.37016 | -121.93187 | 41 ft | 3 kts | 69° |
| 2026-05-04 03:13 | 37.37012 | -121.93210 | 41 ft | 3 kts | 101° |
| 2026-05-04 03:13 | 37.37019 | -121.93232 | 41 ft | 3 kts | 131° |
| 2026-05-04 03:14 | 37.37029 | -121.93245 | 42 ft | 1 kts | 139° |
| 2026-05-04 03:14 | 37.37032 | -121.93248 | 42 ft | 1 kts | 139° |
| 2026-05-04 03:16 | 37.37030 | -121.93246 | 42 ft | 0 kts | 139° |
| 2026-05-04 03:16 | 37.37011 | -121.93225 | 42 ft | 11 kts | 139° |
| 2026-05-04 03:17 | 37.36933 | -121.93162 | 42 ft | 15 kts | 168° |
| 2026-05-04 03:17 | 37.36839 | -121.93129 | 43 ft | 15 kts | 149° |
| 2026-05-04 03:17 | 37.36758 | -121.93041 | 45 ft | 16 kts | 136° |
| 2026-05-04 03:17 | 37.36674 | -121.92943 | 47 ft | 16 kts | 140° |
| 2026-05-04 03:18 | 37.36587 | -121.92857 | 51 ft | 16 kts | 139° |
| 2026-05-04 03:18 | 37.36500 | -121.92763 | 51 ft | 17 kts | 139° |
| 2026-05-04 03:18 | 37.36415 | -121.92669 | 50 ft | 16 kts | 139° |
| 2026-05-04 03:18 | 37.36323 | -121.92569 | 54 ft | 19 kts | 139° |
| 2026-05-04 03:19 | 37.36221 | -121.92459 | 50 ft | 19 kts | 139° |
| 2026-05-04 03:19 | 37.36123 | -121.92350 | 53 ft | 20 kts | 139° |
| 2026-05-04 03:19 | 37.36020 | -121.92237 | 55 ft | 19 kts | 139° |
| 2026-05-04 03:19 | 37.35920 | -121.92128 | 55 ft | 19 kts | 139° |
| 2026-05-04 03:20 | 37.35824 | -121.92022 | 57 ft | 18 kts | 139° |
| 2026-05-04 03:20 | 37.35730 | -121.91920 | 57 ft | 18 kts | 139° |
| 2026-05-04 03:20 | 37.35632 | -121.91812 | 55 ft | 19 kts | 139° |
| 2026-05-04 03:20 | 37.35537 | -121.91707 | 63 ft | 15 kts | 139° |
| 2026-05-04 03:21 | 37.35473 | -121.91636 | 61 ft | 13 kts | 139° |
| 2026-05-04 03:21 | 37.35404 | -121.91560 | 58 ft | 13 kts | 139° |
| 2026-05-04 03:21 | 37.35331 | -121.91485 | 57 ft | 15 kts | 152° |
| 2026-05-04 03:21 | 37.35243 | -121.91540 | 53 ft | 16 kts | 227° |
| 2026-05-04 03:22 | 37.35172 | -121.91641 | 56 ft | 15 kts | 230° |
| 2026-05-04 03:22 | 37.35137 | -121.91749 | 54 ft | 12 kts | 298° |
| 2026-05-04 03:22 | 37.35192 | -121.91813 | 60 ft | 10 kts | 319° |
| 2026-05-04 03:22 | 37.35320 | -121.91952 | 62 ft | 54 kts | 319° |
| 2026-05-04 03:23 | 37.35840 | -121.92520 | 49 ft | 141 kts | 319° |
| 2026-05-04 03:23 | 37.36749 | -121.93511 | 157 ft | 203 kts | 320° |
| 2026-05-04 03:23 | 37.37915 | -121.94743 | 641 ft | 233 kts | 320° |
| 2026-05-04 03:23 | 37.39238 | -121.96055 | 1336 ft | 251 kts | 322° |
| 2026-05-04 03:24 | 37.40644 | -121.97465 | 2015 ft | 259 kts | 321° |
| 2026-05-04 03:24 | 37.42151 | -121.98576 | 2519 ft | 250 kts | 345° |
| 2026-05-04 03:24 | 37.43831 | -121.98358 | 3041 ft | 247 kts | 29° |
| 2026-05-04 03:24 | 37.44999 | -121.96827 | 3905 ft | 248 kts | 68° |
| 2026-05-04 03:25 | 37.45243 | -121.94704 | 4735 ft | 248 kts | 93° |
| 2026-05-04 03:25 | 37.44973 | -121.92597 | 5038 ft | 248 kts | 111° |
| 2026-05-04 03:25 | 37.44053 | -121.90770 | 5108 ft | 250 kts | 134° |
| 2026-05-04 03:25 | 37.42811 | -121.89239 | 5118 ft | 249 kts | 138° |
| 2026-05-04 03:26 | 37.41543 | -121.87772 | 5115 ft | 246 kts | 138° |
| 2026-05-04 03:26 | 37.40289 | -121.86314 | 5107 ft | 245 kts | 138° |
| 2026-05-04 03:26 | 37.39050 | -121.84853 | 5114 ft | 243 kts | 137° |
| 2026-05-04 03:26 | 37.37826 | -121.83396 | 5115 ft | 242 kts | 137° |
| 2026-05-04 03:27 | 37.36605 | -121.81940 | 5128 ft | 242 kts | 137° |
| 2026-05-04 03:27 | 37.35380 | -121.80474 | 5130 ft | 243 kts | 137° |
| 2026-05-04 03:27 | 37.33935 | -121.79342 | 5130 ft | 260 kts | 166° |
| 2026-05-04 03:27 | 37.32117 | -121.79370 | 5136 ft | 268 kts | 198° |
| 2026-05-04 03:28 | 37.30536 | -121.80580 | 5138 ft | 269 kts | 227° |
| 2026-05-04 03:28 | 37.29634 | -121.82591 | 5122 ft | 266 kts | 256° |
| 2026-05-04 03:28 | 37.29646 | -121.84878 | 5122 ft | 265 kts | 287° |
| 2026-05-04 03:28 | 37.30572 | -121.86846 | 5139 ft | 264 kts | 313° |
| 2026-05-04 03:29 | 37.31918 | -121.88414 | 5129 ft | 265 kts | 319° |
| 2026-05-04 03:29 | 37.33325 | -121.89919 | 5124 ft | 266 kts | 319° |
| 2026-05-04 03:29 | 37.34729 | -121.91440 | 5112 ft | 268 kts | 318° |
| 2026-05-04 03:29 | 37.36113 | -121.92965 | 5110 ft | 269 kts | 318° |
| 2026-05-04 03:30 | 37.37645 | -121.94300 | 5095 ft | 271 kts | 340° |
| 2026-05-04 03:30 | 37.39513 | -121.94709 | 5398 ft | 277 kts | 355° |
| 2026-05-04 03:30 | 37.41438 | -121.94867 | 6370 ft | 276 kts | 356° |
| 2026-05-04 03:30 | 37.43360 | -121.95017 | 7366 ft | 277 kts | 356° |
| 2026-05-04 03:31 | 37.45299 | -121.95171 | 8243 ft | 283 kts | 355° |
| 2026-05-04 03:31 | 37.47272 | -121.95332 | 9130 ft | 285 kts | 355° |
| 2026-05-04 03:31 | 37.49265 | -121.95498 | 9970 ft | 289 kts | 354° |
| 2026-05-04 03:31 | 37.51280 | -121.95675 | 10749 ft | 297 kts | 354° |
| 2026-05-04 03:32 | 37.53392 | -121.95857 | 10963 ft | 320 kts | 354° |
| 2026-05-04 03:32 | 37.55690 | -121.96064 | 11263 ft | 340 kts | 354° |
| 2026-05-04 03:32 | 37.58075 | -121.96266 | 12003 ft | 345 kts | 354° |
| 2026-05-04 03:32 | 37.60472 | -121.96360 | 12870 ft | 346 kts | 1° |
| 2026-05-04 03:33 | 37.61189 | -121.96283 | 13113 ft | 348 kts | 4° |
| 2026-05-04 03:33 | 37.62350 | -121.96054 | 13480 ft | 351 kts | 8° |
| 2026-05-04 03:33 | 37.64719 | -121.95183 | 14136 ft | 360 kts | 18° |
| 2026-05-04 03:33 | 37.67063 | -121.94011 | 14805 ft | 365 kts | 19° |
| 2026-05-04 03:34 | 37.69396 | -121.92814 | 15490 ft | 368 kts | 19° |
| 2026-05-04 03:34 | 37.71785 | -121.91591 | 16142 ft | 373 kts | 19° |
| 2026-05-04 03:34 | 37.74206 | -121.90368 | 16789 ft | 376 kts | 19° |
| 2026-05-04 03:34 | 37.76655 | -121.89143 | 17423 ft | 381 kts | 18° |
| 2026-05-04 03:35 | 37.79127 | -121.87910 | 18018 ft | 384 kts | 19° |
| 2026-05-04 03:35 | 37.81631 | -121.86662 | 18590 ft | 389 kts | 19° |
| 2026-05-04 03:35 | 37.84165 | -121.85402 | 19111 ft | 394 kts | 19° |
| 2026-05-04 03:35 | 37.86724 | -121.84131 | 19681 ft | 397 kts | 18° |
| 2026-05-04 03:36 | 37.89301 | -121.82850 | 20235 ft | 401 kts | 18° |
| 2026-05-04 03:36 | 37.91913 | -121.81551 | 20763 ft | 404 kts | 19° |
| 2026-05-04 03:36 | 37.94505 | -121.80261 | 21267 ft | 408 kts | 19° |
| 2026-05-04 03:36 | 37.97156 | -121.78940 | 21767 ft | 411 kts | 19° |
| 2026-05-04 03:37 | 37.99831 | -121.77604 | 22251 ft | 415 kts | 19° |
| 2026-05-04 03:37 | 38.02529 | -121.76257 | 22697 ft | 418 kts | 19° |
| 2026-05-04 03:37 | 38.05248 | -121.74897 | 23135 ft | 422 kts | 19° |
| 2026-05-04 03:37 | 38.07990 | -121.73525 | 23570 ft | 425 kts | 19° |
| 2026-05-04 03:38 | 38.08780 | -121.73130 | 23691 ft | 426 kts | 19° |
| 2026-05-04 03:38 | 38.10035 | -121.72502 | 23885 ft | 427 kts | 19° |
| 2026-05-04 03:38 | 38.12776 | -121.71128 | 24296 ft | 430 kts | 19° |
| 2026-05-04 03:38 | 38.15565 | -121.69728 | 24720 ft | 433 kts | 19° |
| 2026-05-04 03:39 | 38.18373 | -121.68319 | 25152 ft | 435 kts | 18° |
| 2026-05-04 03:39 | 38.21192 | -121.66904 | 25568 ft | 437 kts | 18° |
| 2026-05-04 03:39 | 38.24027 | -121.65480 | 25965 ft | 439 kts | 18° |
| 2026-05-04 03:39 | 38.26873 | -121.64048 | 26340 ft | 441 kts | 18° |
| 2026-05-04 03:40 | 38.29733 | -121.62608 | 26711 ft | 443 kts | 18° |
| 2026-05-04 03:40 | 38.32605 | -121.61159 | 27076 ft | 445 kts | 18° |
| 2026-05-04 03:40 | 38.35488 | -121.59706 | 27419 ft | 447 kts | 18° |
| 2026-05-04 03:40 | 38.38343 | -121.58265 | 27753 ft | 449 kts | 18° |
| 2026-05-04 03:41 | 38.41231 | -121.56708 | 28066 ft | 454 kts | 23° |
| 2026-05-04 03:41 | 38.43927 | -121.54562 | 28367 ft | 462 kts | 33° |
| 2026-05-04 03:41 | 38.46364 | -121.51853 | 28702 ft | 468 kts | 41° |
| 2026-05-04 03:41 | 38.48466 | -121.48646 | 29005 ft | 474 kts | 48° |
| 2026-05-04 03:42 | 38.50448 | -121.45269 | 29282 ft | 477 kts | 49° |
| 2026-05-04 03:42 | 38.52410 | -121.41844 | 29538 ft | 479 kts | 50° |
| 2026-05-04 03:42 | 38.54355 | -121.38441 | 29803 ft | 481 kts | 49° |
| 2026-05-04 03:42 | 38.56336 | -121.34992 | 30171 ft | 480 kts | 49° |
| 2026-05-04 03:43 | 38.56901 | -121.34013 | 30300 ft | 480 kts | 49° |
| 2026-05-04 03:43 | 38.57856 | -121.32361 | 30522 ft | 478 kts | 49° |
| 2026-05-04 03:43 | 38.59831 | -121.28957 | 30963 ft | 476 kts | 49° |
| 2026-05-04 03:43 | 38.61809 | -121.25564 | 31306 ft | 476 kts | 48° |
| 2026-05-04 03:44 | 38.63790 | -121.22175 | 31627 ft | 475 kts | 48° |
| 2026-05-04 03:44 | 38.65768 | -121.18791 | 31979 ft | 474 kts | 48° |
| 2026-05-04 03:44 | 38.67707 | -121.15468 | 32338 ft | 473 kts | 48° |
| 2026-05-04 03:44 | 38.69675 | -121.12095 | 32702 ft | 471 kts | 48° |
| 2026-05-04 03:45 | 38.71633 | -121.08734 | 33023 ft | 471 kts | 48° |
| 2026-05-04 03:45 | 38.73588 | -121.05375 | 33317 ft | 471 kts | 48° |
| 2026-05-04 03:45 | 38.75542 | -121.02013 | 33620 ft | 470 kts | 48° |
| 2026-05-04 03:45 | 38.77489 | -120.98658 | 33975 ft | 468 kts | 48° |
| 2026-05-04 03:46 | 38.79427 | -120.95317 | 34291 ft | 467 kts | 48° |
| 2026-05-04 03:46 | 38.81363 | -120.91974 | 34568 ft | 467 kts | 48° |
| 2026-05-04 03:46 | 38.83302 | -120.88623 | 34797 ft | 468 kts | 48° |
| 2026-05-04 03:46 | 38.85213 | -120.85318 | 35042 ft | 468 kts | 48° |
| 2026-05-04 03:47 | 38.87147 | -120.81971 | 35326 ft | 467 kts | 48° |
| 2026-05-04 03:47 | 38.89082 | -120.78617 | 35588 ft | 467 kts | 49° |
| 2026-05-04 03:47 | 38.91013 | -120.75265 | 35799 ft | 468 kts | 49° |
| 2026-05-04 03:47 | 38.92949 | -120.71902 | 36007 ft | 468 kts | 49° |
| 2026-05-04 03:48 | 38.93473 | -120.70990 | 36079 ft | 468 kts | 49° |
| 2026-05-04 03:48 | 38.94489 | -120.69222 | 36201 ft | 468 kts | 49° |
| 2026-05-04 03:48 | 38.96425 | -120.65853 | 36401 ft | 469 kts | 49° |
| 2026-05-04 03:48 | 38.98334 | -120.62528 | 36630 ft | 468 kts | 49° |
| 2026-05-04 03:49 | 39.00264 | -120.59160 | 36907 ft | 466 kts | 49° |
| 2026-05-04 03:49 | 39.02185 | -120.55806 | 37095 ft | 467 kts | 49° |
| 2026-05-04 03:49 | 39.04114 | -120.52436 | 37080 ft | 468 kts | 49° |
| 2026-05-04 03:50 | 39.07938 | -120.45735 | 37065 ft | 461 kts | 49° |
| 2026-05-04 03:50 | 39.11715 | -120.39111 | 37084 ft | 458 kts | 49° |
| 2026-05-04 03:51 | 39.15449 | -120.32546 | 37069 ft | 457 kts | 49° |
| 2026-05-04 03:51 | 39.19204 | -120.25936 | 37074 ft | 457 kts | 49° |
| 2026-05-04 03:52 | 39.22958 | -120.19314 | 36851 ft | 462 kts | 49° |
| 2026-05-04 03:52 | 39.26737 | -120.12631 | 36887 ft | 460 kts | 50° |
| 2026-05-04 03:52 | 39.28613 | -120.09306 | 37001 ft | 457 kts | 50° |
| 2026-05-04 03:53 | 39.29091 | -120.08458 | 37012 ft | 457 kts | 50° |
| 2026-05-04 03:53 | 39.31931 | -120.03418 | 37055 ft | 457 kts | 50° |
| 2026-05-04 03:54 | 39.35669 | -119.96775 | 37062 ft | 458 kts | 50° |
| 2026-05-04 03:54 | 39.39409 | -119.90113 | 37055 ft | 458 kts | 50° |
| 2026-05-04 03:55 | 39.43144 | -119.83447 | 37044 ft | 458 kts | 50° |
| 2026-05-04 03:55 | 39.46853 | -119.76812 | 37036 ft | 458 kts | 50° |
| 2026-05-04 03:56 | 39.50580 | -119.70128 | 37031 ft | 458 kts | 50° |
| 2026-05-04 03:56 | 39.54226 | -119.63353 | 37023 ft | 460 kts | 54° |
| 2026-05-04 03:57 | 39.57444 | -119.56180 | 37034 ft | 461 kts | 56° |
| 2026-05-04 03:57 | 39.60544 | -119.48975 | 37030 ft | 461 kts | 56° |
| 2026-05-04 03:58 | 39.63359 | -119.42492 | 37026 ft | 460 kts | 56° |
| 2026-05-04 03:58 | 39.66526 | -119.35277 | 37030 ft | 459 kts | 56° |
| 2026-05-04 03:59 | 39.69155 | -119.29304 | 37020 ft | 458 kts | 56° |
| 2026-05-04 03:59 | 39.72826 | -119.20951 | 37020 ft | 458 kts | 56° |
| 2026-05-04 04:00 | 39.75974 | -119.13772 | 37014 ft | 456 kts | 56° |
| 2026-05-04 04:00 | 39.78577 | -119.07818 | 37023 ft | 455 kts | 56° |
| 2026-05-04 04:01 | 39.81697 | -119.00661 | 37021 ft | 455 kts | 56° |
| 2026-05-04 04:01 | 39.84807 | -118.93514 | 37015 ft | 454 kts | 56° |
| 2026-05-04 04:02 | 39.88412 | -118.85208 | 37008 ft | 452 kts | 56° |
| 2026-05-04 04:02 | 39.90999 | -118.79238 | 37008 ft | 451 kts | 56° |
| 2026-05-04 04:03 | 39.92222 | -118.76413 | 37009 ft | 450 kts | 56° |
| 2026-05-04 04:03 | 39.95291 | -118.69307 | 37010 ft | 449 kts | 56° |
| 2026-05-04 04:04 | 39.98346 | -118.62212 | 37011 ft | 448 kts | 56° |
| 2026-05-04 04:04 | 40.01391 | -118.55131 | 37006 ft | 447 kts | 56° |
| 2026-05-04 04:05 | 40.04404 | -118.48105 | 37012 ft | 446 kts | 56° |
| 2026-05-04 04:05 | 40.07429 | -118.41035 | 37012 ft | 446 kts | 56° |
| 2026-05-04 04:06 | 40.10452 | -118.33952 | 37008 ft | 447 kts | 56° |
| 2026-05-04 04:06 | 40.13473 | -118.26858 | 37007 ft | 446 kts | 56° |
| 2026-05-04 04:07 | 40.16466 | -118.19817 | 37012 ft | 446 kts | 56° |
| 2026-05-04 04:07 | 40.19478 | -118.12714 | 37008 ft | 447 kts | 56° |
| 2026-05-04 04:08 | 40.20662 | -118.09918 | 37006 ft | 447 kts | 56° |
| 2026-05-04 04:08 | 40.23665 | -118.02809 | 37015 ft | 446 kts | 56° |
| 2026-05-04 04:09 | 40.26643 | -117.95744 | 37022 ft | 446 kts | 56° |
| 2026-05-04 04:09 | 40.29640 | -117.88617 | 37020 ft | 446 kts | 56° |
| 2026-05-04 04:10 | 40.32632 | -117.81488 | 37018 ft | 447 kts | 56° |
| 2026-05-04 04:10 | 40.35627 | -117.74333 | 37013 ft | 448 kts | 56° |
| 2026-05-04 04:11 | 40.38601 | -117.67210 | 37013 ft | 448 kts | 56° |
| 2026-05-04 04:11 | 40.41580 | -117.60059 | 37019 ft | 447 kts | 56° |
| 2026-05-04 04:12 | 40.44555 | -117.52901 | 37021 ft | 446 kts | 56° |
| 2026-05-04 04:12 | 40.47524 | -117.45739 | 37016 ft | 446 kts | 56° |
| 2026-05-04 04:13 | 40.48701 | -117.42895 | 37026 ft | 445 kts | 56° |
| 2026-05-04 04:13 | 40.51651 | -117.35758 | 37017 ft | 444 kts | 56° |
| 2026-05-04 04:14 | 40.54590 | -117.28631 | 37017 ft | 443 kts | 56° |
| 2026-05-04 04:14 | 40.57518 | -117.21512 | 37026 ft | 442 kts | 56° |
| 2026-05-04 04:15 | 40.60437 | -117.14400 | 37031 ft | 441 kts | 56° |
| 2026-05-04 04:15 | 40.63328 | -117.07341 | 37021 ft | 441 kts | 56° |
| 2026-05-04 04:16 | 40.66229 | -117.00233 | 37026 ft | 440 kts | 56° |
| 2026-05-04 04:16 | 40.69119 | -116.93144 | 37028 ft | 439 kts | 56° |
| 2026-05-04 04:17 | 40.71997 | -116.86064 | 37028 ft | 438 kts | 56° |
| 2026-05-04 04:17 | 40.75003 | -116.79124 | 37023 ft | 434 kts | 51° |
| 2026-05-04 04:18 | 40.76329 | -116.76454 | 37031 ft | 432 kts | 51° |
| 2026-05-04 04:18 | 40.79687 | -116.69881 | 37027 ft | 432 kts | 50° |
| 2026-05-04 04:19 | 40.83030 | -116.63288 | 37024 ft | 433 kts | 51° |
| 2026-05-04 04:19 | 40.86345 | -116.56649 | 37018 ft | 432 kts | 51° |
| 2026-05-04 04:20 | 40.89614 | -116.50057 | 37018 ft | 431 kts | 51° |
| 2026-05-04 04:20 | 40.92896 | -116.43417 | 37029 ft | 431 kts | 51° |
| 2026-05-04 04:21 | 40.96170 | -116.36780 | 37018 ft | 431 kts | 51° |
| 2026-05-04 04:21 | 40.99447 | -116.30123 | 37016 ft | 432 kts | 51° |
| 2026-05-04 04:22 | 41.02701 | -116.23503 | 37012 ft | 432 kts | 51° |
| 2026-05-04 04:22 | 41.05970 | -116.16839 | 37011 ft | 431 kts | 51° |
| 2026-05-04 04:23 | 41.07292 | -116.14139 | 37011 ft | 432 kts | 51° |
| 2026-05-04 04:23 | 41.10552 | -116.07466 | 37007 ft | 432 kts | 51° |
| 2026-05-04 04:24 | 41.13791 | -116.00827 | 37013 ft | 432 kts | 51° |
| 2026-05-04 04:24 | 41.17050 | -115.94129 | 37020 ft | 431 kts | 51° |
| 2026-05-04 04:25 | 41.20298 | -115.87442 | 37016 ft | 431 kts | 51° |
| 2026-05-04 04:25 | 41.23540 | -115.80748 | 37002 ft | 430 kts | 51° |
| 2026-05-04 04:26 | 41.26747 | -115.74112 | 37006 ft | 429 kts | 51° |
| 2026-05-04 04:26 | 41.29968 | -115.67434 | 37007 ft | 428 kts | 51° |
| 2026-05-04 04:27 | 41.33181 | -115.60766 | 37008 ft | 428 kts | 51° |
| 2026-05-04 04:27 | 41.36384 | -115.54095 | 37010 ft | 428 kts | 51° |
| 2026-05-04 04:28 | 41.37672 | -115.51403 | 37011 ft | 428 kts | 51° |
| 2026-05-04 04:28 | 41.40866 | -115.44736 | 37014 ft | 427 kts | 51° |
| 2026-05-04 04:29 | 41.44055 | -115.38063 | 37023 ft | 427 kts | 52° |
| 2026-05-04 04:29 | 41.47244 | -115.31373 | 37022 ft | 427 kts | 52° |
| 2026-05-04 04:30 | 41.50425 | -115.24679 | 37018 ft | 427 kts | 52° |
| 2026-05-04 04:30 | 41.53581 | -115.18028 | 37019 ft | 428 kts | 52° |
| 2026-05-04 04:31 | 41.56759 | -115.11318 | 37021 ft | 428 kts | 52° |
| 2026-05-04 04:31 | 41.60282 | -115.05012 | 37021 ft | 419 kts | 39° |
| 2026-05-04 04:32 | 41.64841 | -115.00309 | 37010 ft | 411 kts | 25° |
| 2026-05-04 04:32 | 41.69851 | -114.96744 | 37022 ft | 410 kts | 24° |
| 2026-05-04 04:33 | 41.71932 | -114.95274 | 37013 ft | 411 kts | 24° |
| 2026-05-04 04:33 | 41.74437 | -114.93494 | 36884 ft | 404 kts | 24° |
| 2026-05-04 04:33 | 41.76895 | -114.91736 | 36540 ft | 397 kts | 24° |
| 2026-05-04 04:34 | 41.79330 | -114.89988 | 36321 ft | 400 kts | 25° |
| 2026-05-04 04:34 | 41.81806 | -114.88210 | 36087 ft | 407 kts | 25° |
| 2026-05-04 04:34 | 41.84292 | -114.86422 | 35843 ft | 415 kts | 25° |
| 2026-05-04 04:34 | 41.86845 | -114.84580 | 35601 ft | 418 kts | 25° |
| 2026-05-04 04:35 | 41.89407 | -114.82724 | 35352 ft | 418 kts | 25° |
| 2026-05-04 04:35 | 41.91963 | -114.80870 | 35114 ft | 416 kts | 25° |
| 2026-05-04 04:35 | 41.97023 | -114.77195 | 35018 ft | 412 kts | 25° |
| 2026-05-04 04:36 | 42.02063 | -114.73531 | 35019 ft | 412 kts | 25° |
| 2026-05-04 04:36 | 42.06999 | -114.69934 | 34468 ft | 401 kts | 24° |
| 2026-05-04 04:37 | 42.14436 | -114.64515 | 32029 ft | 412 kts | 25° |
| 2026-05-04 04:37 | 42.16954 | -114.62676 | 31326 ft | 412 kts | 25° |
| 2026-05-04 04:38 | 42.18215 | -114.61754 | 31045 ft | 410 kts | 25° |
| 2026-05-04 04:38 | 42.18977 | -114.61197 | 30885 ft | 409 kts | 25° |
| 2026-05-04 04:38 | 42.21465 | -114.59389 | 30410 ft | 403 kts | 25° |
| 2026-05-04 04:38 | 42.23923 | -114.57587 | 29892 ft | 400 kts | 26° |
| 2026-05-04 04:39 | 42.26352 | -114.55784 | 29308 ft | 398 kts | 26° |
| 2026-05-04 04:39 | 42.28777 | -114.53997 | 28697 ft | 396 kts | 25° |
| 2026-05-04 04:39 | 42.31146 | -114.52242 | 28173 ft | 392 kts | 26° |
| 2026-05-04 04:39 | 42.33538 | -114.50487 | 27666 ft | 391 kts | 26° |
| 2026-05-04 04:40 | 42.35920 | -114.48741 | 27156 ft | 389 kts | 26° |
| 2026-05-04 04:40 | 42.38296 | -114.46995 | 26650 ft | 387 kts | 26° |
| 2026-05-04 04:40 | 42.40658 | -114.45259 | 26151 ft | 386 kts | 26° |
| 2026-05-04 04:40 | 42.43017 | -114.43521 | 25659 ft | 385 kts | 26° |
| 2026-05-04 04:41 | 42.45367 | -114.41786 | 25165 ft | 385 kts | 26° |
| 2026-05-04 04:41 | 42.47715 | -114.40052 | 24675 ft | 384 kts | 27° |
| 2026-05-04 04:41 | 42.50030 | -114.38337 | 24186 ft | 384 kts | 27° |
| 2026-05-04 04:41 | 42.52373 | -114.36601 | 23689 ft | 384 kts | 27° |
| 2026-05-04 04:42 | 42.54717 | -114.34865 | 23198 ft | 385 kts | 27° |
| 2026-05-04 04:42 | 42.57068 | -114.33121 | 22713 ft | 385 kts | 27° |
| 2026-05-04 04:42 | 42.59444 | -114.31359 | 22205 ft | 393 kts | 27° |
| 2026-05-04 04:42 | 42.61855 | -114.29568 | 21708 ft | 395 kts | 27° |
| 2026-05-04 04:43 | 42.63037 | -114.28689 | 21459 ft | 395 kts | 27° |
| 2026-05-04 04:43 | 42.63752 | -114.28157 | 21308 ft | 394 kts | 27° |
| 2026-05-04 04:43 | 42.66116 | -114.26395 | 20816 ft | 392 kts | 27° |
| 2026-05-04 04:43 | 42.68496 | -114.24622 | 20315 ft | 390 kts | 27° |
| 2026-05-04 04:44 | 42.70867 | -114.22855 | 19821 ft | 387 kts | 27° |
| 2026-05-04 04:44 | 42.73221 | -114.21096 | 19325 ft | 385 kts | 27° |
| 2026-05-04 04:44 | 42.75567 | -114.19343 | 18840 ft | 383 kts | 27° |
| 2026-05-04 04:44 | 42.77898 | -114.17601 | 18342 ft | 382 kts | 27° |
| 2026-05-04 04:45 | 42.80220 | -114.15864 | 17855 ft | 380 kts | 27° |
| 2026-05-04 04:45 | 42.82535 | -114.14133 | 17386 ft | 378 kts | 27° |
| 2026-05-04 04:45 | 42.84831 | -114.12413 | 16924 ft | 375 kts | 28° |
| 2026-05-04 04:47 | 42.98299 | -114.02279 | 14096 ft | 364 kts | 28° |
| 2026-05-04 04:47 | 43.00511 | -114.00612 | 13640 ft | 361 kts | 28° |
| 2026-05-04 04:47 | 43.02702 | -113.98960 | 13188 ft | 359 kts | 28° |
| 2026-05-04 04:47 | 43.04847 | -113.97341 | 12747 ft | 356 kts | 28° |
| 2026-05-04 04:48 | 43.05905 | -113.96542 | 12533 ft | 355 kts | 28° |
| 2026-05-04 04:49 | 43.13465 | -113.94445 | 11021 ft | 341 kts | 336° |
| 2026-05-04 04:49 | 43.15478 | -113.96100 | 10664 ft | 333 kts | 317° |
| 2026-05-04 04:49 | 43.17008 | -113.98388 | 10537 ft | 320 kts | 307° |
| 2026-05-04 04:49 | 43.18360 | -114.00751 | 10379 ft | 311 kts | 307° |
| 2026-05-04 04:50 | 43.19813 | -114.02830 | 10237 ft | 303 kts | 319° |
| 2026-05-04 04:50 | 43.21443 | -114.04582 | 10116 ft | 293 kts | 322° |
| 2026-05-04 04:50 | 43.23064 | -114.06235 | 9904 ft | 289 kts | 322° |
| 2026-05-04 04:50 | 43.24659 | -114.07875 | 9727 ft | 282 kts | 322° |
| 2026-05-04 04:51 | 43.26195 | -114.09486 | 9595 ft | 274 kts | 321° |
| 2026-05-04 04:51 | 43.27682 | -114.11067 | 9494 ft | 267 kts | 321° |
| 2026-05-04 04:51 | 43.29118 | -114.12608 | 9384 ft | 258 kts | 321° |
| 2026-05-04 04:51 | 43.30514 | -114.14112 | 9273 ft | 253 kts | 321° |
| 2026-05-04 04:52 | 43.31875 | -114.15579 | 9203 ft | 249 kts | 321° |
| 2026-05-04 04:52 | 43.33212 | -114.17027 | 8984 ft | 241 kts | 321° |
| 2026-05-04 04:52 | 43.34568 | -114.18309 | 8748 ft | 233 kts | 331° |
| 2026-05-04 04:52 | 43.35989 | -114.19272 | 8522 ft | 223 kts | 335° |
| 2026-05-04 04:53 | 43.37343 | -114.20160 | 8291 ft | 206 kts | 333° |
| 2026-05-04 04:53 | 43.38590 | -114.21001 | 8061 ft | 193 kts | 333° |
| 2026-05-04 04:53 | 43.39757 | -114.21798 | 7804 ft | 182 kts | 333° |
| 2026-05-04 04:53 | 43.40840 | -114.22543 | 7588 ft | 170 kts | 333° |
| 2026-05-04 04:54 | 43.41861 | -114.23241 | 7321 ft | 160 kts | 332° |
| 2026-05-04 04:54 | 43.42838 | -114.23914 | 7084 ft | 155 kts | 332° |
| 2026-05-04 04:54 | 43.43796 | -114.24575 | 6845 ft | 153 kts | 332° |
| 2026-05-04 04:54 | 43.44745 | -114.25231 | 6619 ft | 152 kts | 332° |
| 2026-05-04 04:55 | 43.45668 | -114.25872 | 6409 ft | 148 kts | 332° |
| 2026-05-04 04:55 | 43.46586 | -114.26508 | 6171 ft | 147 kts | 332° |
| 2026-05-04 04:55 | 43.47502 | -114.27141 | 5931 ft | 147 kts | 333° |
| 2026-05-04 04:55 | 43.48426 | -114.27740 | 5659 ft | 148 kts | 333° |
| 2026-05-04 04:56 | 43.49272 | -114.28492 | 5398 ft | 145 kts | 324° |
| 2026-05-04 04:56 | 43.50049 | -114.29235 | 5289 ft | 106 kts | 324° |
| 2026-05-04 04:56 | 43.50334 | -114.29511 | 5297 ft | 0 kts | 324° |
| 2026-05-04 04:56 | 43.50383 | -114.29559 | 5299 ft | 12 kts | 324° |
| 2026-05-04 04:57 | 43.50448 | -114.29624 | 5302 ft | 11 kts | 324° |
| 2026-05-04 04:57 | 43.50512 | -114.29685 | 5300 ft | 11 kts | 327° |
| 2026-05-04 04:57 | 43.50572 | -114.29751 | 5307 ft | 11 kts | 303° |
| 2026-05-04 04:57 | 43.50556 | -114.29838 | 5308 ft | 8 kts | 243° |
| 2026-05-04 04:58 | 43.50563 | -114.29881 | 5309 ft | 3 kts | 328° |
| 2026-05-04 04:58 | 43.50578 | -114.29898 | 5310 ft | 4 kts | 322° |
| 2026-05-04 04:58 | 43.50620 | -114.29937 | 5308 ft | 10 kts | 324° |
| 2026-05-04 04:58 | 43.50689 | -114.30005 | 5313 ft | 14 kts | 326° |
| 2026-05-04 04:59 | 43.50739 | -114.30107 | 5315 ft | 13 kts | 255° |
| 2026-05-04 04:59 | 43.50727 | -114.30141 | 5316 ft | 0 kts | 241° |